createdAt,value
2022-08-12T00:00:54.591Z,2.70
2022-08-12T00:03:59.287Z,2.53
2022-08-12T00:07:03.953Z,2.38
2022-08-12T00:10:08.437Z,2.30
2022-08-12T00:13:13.475Z,2.45
2022-08-12T00:16:18.026Z,2.47
2022-08-12T00:19:21.996Z,2.38
2022-08-12T00:22:26.999Z,2.60
2022-08-12T00:26:01.367Z,2.40
2022-08-12T00:28:56.136Z,2.75
2022-08-12T00:32:01.295Z,2.20
2022-08-12T00:35:09.025Z,2.45
2022-08-12T00:38:14.649Z,2.00
2022-08-12T00:41:19.126Z,2.53
2022-08-12T00:44:06.315Z,2.58
2022-08-12T00:46:54.660Z,2.78
2022-08-12T00:49:41.637Z,2.13
2022-08-12T00:52:27.728Z,2.30
2022-08-12T00:55:13.709Z,2.40
2022-08-12T00:58:02.831Z,2.67
2022-08-12T01:00:50.461Z,1.90
2022-08-12T01:03:57.606Z,2.17
2022-08-12T01:07:03.873Z,2.50
2022-08-12T01:10:09.217Z,2.38
2022-08-12T01:12:55.201Z,2.25
2022-08-12T01:16:07.597Z,2.30
2022-08-12T01:18:56.047Z,2.22
2022-08-12T01:21:41.812Z,2.30
2022-08-12T01:24:46.373Z,1.95
2022-08-12T01:27:34.847Z,2.38
2022-08-12T01:30:20.638Z,2.58
2022-08-12T01:33:13.220Z,2.30
2022-08-12T01:36:08.710Z,2.60
2022-08-12T01:38:59.248Z,2.55
2022-08-12T01:41:53.760Z,2.80
2022-08-12T01:44:40.099Z,2.30
2022-08-12T01:47:43.133Z,2.35
2022-08-12T01:51:00.438Z,2.20
2022-08-12T01:54:06.138Z,2.30
2022-08-12T01:57:59.576Z,2.40
2022-08-12T02:00:54.995Z,2.47
2022-08-12T02:04:00.150Z,2.30
2022-08-12T02:07:11.317Z,2.70
2022-08-12T02:10:51.314Z,2.30
2022-08-12T02:14:00.804Z,2.45
2022-08-12T02:16:56.602Z,2.55
2022-08-12T02:20:00.492Z,2.55
2022-08-12T02:22:47.348Z,2.50
2022-08-12T02:25:37.440Z,2.28
2022-08-12T02:28:24.403Z,2.75
2022-08-12T02:31:11.066Z,2.50
2022-08-12T02:33:58.829Z,2.42
2022-08-12T02:36:45.654Z,3.03
2022-08-12T02:39:34.008Z,2.88
2022-08-12T02:42:23.500Z,2.58
2022-08-12T02:45:10.403Z,2.35
2022-08-12T02:48:04.861Z,2.70
2022-08-12T02:50:52.627Z,2.60
2022-08-12T02:53:39.459Z,2.35
2022-08-12T02:56:28.198Z,2.80
2022-08-12T02:59:16.833Z,2.47
2022-08-12T03:02:09.069Z,2.42
2022-08-12T03:04:57.539Z,2.40
2022-08-12T03:07:59.467Z,2.10
2022-08-12T03:10:50.454Z,2.28
2022-08-12T03:13:39.953Z,2.10
2022-08-12T03:16:30.259Z,2.22
2022-08-12T03:19:21.836Z,2.55
2022-08-12T03:22:14.596Z,2.28
2022-08-12T03:25:03.801Z,2.70
2022-08-12T03:27:55.974Z,2.45
2022-08-12T03:30:44.156Z,2.42
2022-08-12T03:33:35.132Z,2.55
2022-08-12T03:36:21.624Z,2.17
2022-08-12T03:39:35.820Z,2.60
2022-08-12T03:42:33.091Z,2.50
2022-08-12T03:45:51.554Z,1.98
2022-08-12T03:48:59.437Z,2.50
2022-08-12T03:52:05.468Z,2.80
2022-08-12T03:55:09.361Z,2.50
2022-08-12T03:58:13.909Z,2.53
2022-08-12T04:00:59.522Z,2.80
2022-08-12T04:03:55.028Z,2.53
2022-08-12T04:06:45.259Z,2.50
2022-08-12T04:09:31.591Z,2.45
2022-08-12T04:12:35.598Z,2.50
2022-08-12T04:15:25.821Z,2.45
2022-08-12T04:18:13.481Z,2.33
2022-08-12T04:20:59.137Z,2.72
2022-08-12T04:23:48.364Z,2.58
2022-08-12T04:26:35.913Z,3.03
2022-08-12T04:29:23.331Z,2.80
2022-08-12T04:32:28.775Z,3.05
2022-08-12T04:35:14.648Z,4.00
2022-08-12T04:38:01.241Z,3.17
2022-08-12T04:40:47.566Z,3.60
2022-08-12T04:44:00.772Z,3.20
2022-08-12T04:46:39.313Z,2.85
2022-08-12T04:49:26.699Z,2.80
2022-08-12T04:52:12.505Z,2.80
2022-08-12T04:54:58.924Z,2.90
2022-08-12T04:57:44.461Z,3.05
2022-08-12T05:00:30.119Z,3.10
2022-08-12T05:03:15.744Z,2.90
2022-08-12T05:06:02.498Z,3.30
2022-08-12T05:08:49.469Z,2.85
2022-08-12T05:11:37.716Z,3.30
2022-08-12T05:14:40.092Z,2.90
2022-08-12T05:17:27.277Z,2.47
2022-08-12T05:20:17.331Z,3.20
2022-08-12T05:23:13.733Z,3.13
2022-08-12T05:26:01.136Z,2.67
2022-08-12T05:28:46.797Z,3.63
2022-08-12T05:31:42.494Z,3.50
2022-08-12T05:34:34.548Z,3.20
2022-08-12T05:37:24.061Z,3.08
2022-08-12T05:40:11.641Z,3.33
2022-08-12T05:42:57.326Z,3.53
2022-08-12T05:45:44.947Z,3.47
2022-08-12T05:48:31.067Z,3.58
2022-08-12T05:51:17.553Z,3.80
2022-08-12T05:54:03.698Z,4.07
2022-08-12T05:56:49.521Z,4.07
2022-08-12T05:59:35.081Z,4.30
2022-08-12T06:02:20.519Z,4.05
2022-08-12T06:05:16.828Z,3.20
2022-08-12T06:08:06.223Z,3.83
2022-08-12T06:10:52.046Z,3.75
2022-08-12T06:13:52.820Z,3.08
2022-08-12T06:16:39.815Z,3.30
2022-08-12T06:19:25.367Z,3.10
2022-08-12T06:22:31.079Z,2.85
2022-08-12T06:25:21.861Z,3.25
2022-08-12T06:28:22.750Z,3.03
2022-08-12T06:31:25.365Z,3.20
2022-08-12T06:35:25.467Z,3.22
2022-08-12T06:37:23.382Z,3.00
2022-08-12T06:40:13.897Z,2.95
2022-08-12T06:42:59.665Z,3.38
2022-08-12T06:45:47.410Z,3.22
2022-08-12T06:48:33.391Z,3.28
2022-08-12T06:51:20.706Z,3.50
2022-08-12T06:54:07.389Z,3.10
2022-08-12T06:57:04.340Z,3.10
2022-08-12T06:59:51.229Z,3.13
2022-08-12T07:02:37.311Z,3.45
2022-08-12T07:05:26.773Z,2.80
2022-08-12T07:08:13.425Z,3.47
2022-08-12T07:11:01.259Z,3.28
2022-08-12T07:14:11.283Z,3.05
2022-08-12T07:16:57.589Z,3.25
2022-08-12T07:19:45.087Z,3.25
2022-08-12T07:22:31.021Z,3.05
2022-08-12T07:25:41.058Z,3.40
2022-08-12T07:28:29.520Z,3.15
2022-08-12T07:31:17.361Z,3.00
2022-08-12T07:34:04.735Z,2.95
2022-08-12T07:36:51.284Z,2.97
2022-08-12T07:39:37.245Z,2.72
2022-08-12T07:42:37.134Z,2.42
2022-08-12T07:45:24.576Z,2.53
2022-08-12T07:48:10.262Z,2.67
2022-08-12T07:50:55.776Z,2.80
2022-08-12T07:53:54.844Z,2.78
2022-08-12T07:56:47.078Z,2.67
2022-08-12T07:59:34.073Z,3.00
2022-08-12T08:02:19.554Z,3.10
2022-08-12T08:05:12.578Z,3.08
2022-08-12T08:08:02.443Z,2.60
2022-08-12T08:10:50.185Z,3.13
2022-08-12T08:13:41.020Z,2.47
2022-08-12T08:16:26.509Z,2.40
2022-08-12T08:19:23.885Z,2.63
2022-08-12T08:22:10.555Z,2.28
2022-08-12T08:24:58.656Z,2.13
2022-08-12T08:27:46.810Z,2.90
2022-08-12T08:30:33.572Z,2.70
2022-08-12T08:33:24.713Z,2.92
2022-08-12T08:36:24.488Z,3.00
2022-08-12T08:39:12.844Z,3.10
2022-08-12T08:42:20.115Z,2.50
2022-08-12T08:45:13.057Z,2.50
2022-08-12T08:48:00.506Z,2.55
2022-08-12T08:50:46.263Z,2.53
2022-08-12T08:53:51.895Z,2.80
2022-08-12T08:56:43.866Z,2.88
2022-08-12T08:59:29.821Z,2.30
2022-08-12T09:02:15.592Z,2.50
2022-08-12T09:08:13.021Z,2.65
2022-08-12T09:12:07.333Z,2.60
2022-08-12T09:14:29.299Z,2.70
2022-08-12T09:17:21.455Z,2.03
2022-08-12T09:20:08.245Z,2.60
2022-08-12T09:22:55.631Z,2.08
2022-08-12T09:25:44.899Z,2.72
2022-08-12T09:32:06.938Z,2.42
2022-08-12T09:34:41.731Z,2.58
2022-08-12T09:37:28.729Z,2.60
2022-08-12T09:41:01.980Z,2.13
2022-08-12T09:44:01.180Z,2.28
2022-08-12T09:46:50.657Z,2.33
2022-08-12T09:49:42.007Z,2.40
2022-08-12T09:52:32.058Z,2.08
2022-08-12T09:56:07.155Z,2.15
2022-08-12T09:58:57.139Z,2.08
2022-08-12T10:02:43.030Z,1.90
2022-08-12T10:04:51.729Z,2.40
2022-08-12T10:07:40.210Z,1.80
2022-08-12T10:10:30.454Z,1.90
2022-08-12T10:13:41.632Z,1.63
2022-08-12T10:16:39.272Z,1.67
2022-08-12T10:19:36.271Z,1.90
2022-08-12T10:22:36.759Z,1.83
2022-08-12T10:26:34.379Z,1.90
2022-08-12T10:30:01.898Z,1.52
2022-08-12T10:32:56.328Z,1.80
2022-08-12T10:35:37.812Z,1.85
2022-08-12T10:38:37.443Z,1.80
2022-08-12T10:41:57.941Z,1.80
2022-08-12T10:44:46.887Z,1.70
2022-08-12T10:48:19.386Z,1.75
2022-08-12T10:50:56.710Z,2.50
2022-08-12T10:53:47.508Z,2.08
2022-08-12T10:56:35.335Z,1.88
2022-08-12T11:00:29.769Z,2.08
2022-08-12T11:04:25.125Z,2.10
2022-08-12T11:07:09.386Z,2.10
2022-08-12T11:08:43.021Z,2.45
2022-08-12T11:12:35.874Z,2.17
2022-08-12T11:14:49.516Z,2.28
2022-08-12T11:17:52.502Z,1.85
2022-08-12T11:20:39.097Z,2.03
2022-08-12T11:23:36.534Z,1.85
2022-08-12T11:26:23.317Z,2.15
2022-08-12T11:29:22.793Z,2.05
2022-08-12T11:32:09.112Z,2.33
2022-08-12T11:34:55.483Z,2.15
2022-08-12T11:37:59.403Z,2.20
2022-08-12T11:40:45.702Z,2.00
2022-08-12T11:43:33.171Z,2.15
2022-08-12T11:46:37.778Z,2.30
2022-08-12T11:49:30.496Z,2.20
2022-08-12T11:52:54.953Z,2.00
2022-08-12T11:55:24.340Z,2.47
2022-08-12T11:59:02.935Z,2.17
2022-08-12T12:02:01.207Z,1.75
2022-08-12T12:04:29.170Z,2.50
2022-08-12T12:07:15.363Z,2.30
2022-08-12T12:10:01.537Z,2.08
2022-08-12T12:12:49.897Z,2.67
2022-08-12T12:15:37.378Z,1.85
2022-08-12T12:18:31.104Z,2.25
2022-08-12T12:21:17.251Z,2.03
2022-08-12T12:24:02.845Z,1.90
2022-08-12T12:27:00.119Z,2.00
2022-08-12T12:30:17.688Z,1.75
2022-08-12T12:32:53.732Z,1.77
2022-08-12T12:36:18.609Z,1.52
2022-08-12T12:38:46.119Z,1.40
2022-08-12T12:42:54.392Z,1.85
2022-08-12T12:44:42.058Z,1.63
2022-08-12T12:47:51.636Z,1.88
2022-08-12T12:50:45.555Z,1.52
2022-08-12T12:54:06.982Z,1.65
2022-08-12T12:56:50.059Z,1.73
2022-08-12T12:59:57.001Z,1.70
2022-08-12T13:02:55.716Z,1.77
2022-08-12T13:05:44.330Z,1.80
2022-08-12T13:08:39.288Z,1.60
2022-08-12T13:11:41.192Z,1.45
2022-08-12T13:14:31.112Z,1.95
2022-08-12T13:17:21.363Z,1.65
2022-08-12T13:20:07.814Z,1.63
2022-08-12T13:22:53.529Z,1.35
2022-08-12T13:25:41.581Z,1.75
2022-08-12T13:28:31.072Z,1.70
2022-08-12T13:31:16.649Z,1.60
2022-08-12T13:34:32.131Z,1.38
2022-08-12T13:37:10.223Z,1.50
2022-08-12T13:39:55.878Z,1.58
2022-08-12T13:42:41.624Z,1.42
2022-08-12T13:45:34.315Z,1.42
2022-08-12T13:48:19.998Z,1.60
2022-08-12T13:51:06.050Z,1.45
2022-08-12T13:53:59.156Z,1.30
2022-08-12T13:56:50.142Z,1.52
2022-08-12T13:59:48.445Z,2.00
2022-08-12T14:02:40.948Z,1.40
2022-08-12T14:05:31.246Z,1.50
2022-08-12T14:08:24.211Z,1.50
2022-08-12T14:11:12.378Z,1.20
2022-08-12T14:14:03.691Z,1.77
2022-08-12T14:16:58.266Z,1.60
2022-08-12T14:20:03.682Z,1.17
2022-08-12T14:22:51.533Z,1.80
2022-08-12T14:25:40.693Z,1.40
2022-08-12T14:28:28.762Z,1.40
2022-08-12T14:31:18.432Z,1.75
2022-08-12T14:34:05.093Z,1.63
2022-08-12T14:36:51.911Z,1.67
2022-08-12T14:39:39.144Z,1.50
2022-08-12T14:42:26.004Z,1.38
2022-08-12T14:45:12.630Z,1.55
2022-08-12T14:47:58.984Z,1.48
2022-08-12T14:51:02.776Z,1.70
2022-08-12T14:55:18.251Z,1.42
2022-08-12T14:57:20.061Z,1.35
2022-08-12T15:00:23.226Z,1.38
2022-08-12T15:03:14.403Z,1.40
2022-08-12T15:06:04.802Z,1.80
2022-08-12T15:08:51.362Z,1.52
2022-08-12T15:11:48.758Z,1.50
2022-08-12T15:14:42.926Z,1.40
2022-08-12T15:17:38.251Z,1.63
2022-08-12T15:20:37.442Z,1.42
2022-08-12T15:23:29.236Z,1.38
2022-08-12T15:26:20.558Z,1.42
2022-08-12T15:29:11.660Z,1.80
2022-08-12T15:32:01.923Z,1.40
2022-08-12T15:34:49.850Z,1.70
2022-08-12T15:38:08.039Z,1.65
2022-08-12T15:40:48.659Z,1.70
2022-08-12T15:43:51.317Z,1.50
2022-08-12T15:46:40.591Z,1.50
2022-08-12T15:49:27.597Z,1.77
2022-08-12T15:52:29.770Z,1.60
2022-08-12T15:55:16.756Z,1.83
2022-08-12T15:58:04.558Z,1.67
2022-08-12T16:00:52.745Z,1.60
2022-08-12T16:03:45.363Z,2.58
2022-08-12T16:07:04.242Z,1.92
2022-08-12T16:10:06.120Z,2.20
2022-08-12T16:12:56.631Z,2.28
2022-08-12T16:15:51.126Z,2.00
2022-08-12T16:18:47.220Z,1.60
2022-08-12T16:21:50.444Z,1.63
2022-08-12T16:24:43.577Z,2.13
2022-08-12T16:27:38.629Z,1.80
2022-08-12T16:30:32.808Z,1.50
2022-08-12T16:33:19.613Z,1.52
2022-08-12T16:36:18.957Z,1.83
2022-08-12T16:39:04.799Z,1.77
2022-08-12T16:41:50.627Z,1.65
2022-08-12T16:44:37.476Z,1.83
2022-08-12T16:47:23.690Z,1.50
2022-08-12T16:50:14.503Z,1.52
2022-08-12T16:53:03.452Z,1.73
2022-08-12T16:55:55.832Z,1.50
2022-08-12T16:58:42.000Z,1.50
2022-08-12T17:01:36.801Z,1.70
2022-08-12T17:04:24.398Z,1.63
2022-08-12T17:07:16.737Z,1.40
2022-08-12T17:10:02.741Z,1.48
2022-08-12T17:12:48.185Z,1.67
2022-08-12T17:15:56.960Z,1.63
2022-08-12T17:18:57.039Z,1.65
2022-08-12T17:22:01.989Z,2.10
2022-08-12T17:24:54.585Z,2.83
2022-08-12T17:27:57.303Z,3.20
2022-08-12T17:30:44.755Z,2.80
2022-08-12T17:33:33.661Z,2.47
2022-08-12T17:36:23.778Z,3.20
2022-08-12T17:39:12.771Z,2.38
2022-08-12T17:41:58.440Z,3.08
2022-08-12T17:44:44.077Z,2.53
2022-08-12T17:48:01.234Z,2.00
2022-08-12T17:50:40.454Z,2.78
2022-08-12T17:53:27.528Z,1.85
2022-08-12T17:56:31.797Z,2.08
2022-08-12T17:59:47.218Z,1.80
2022-08-12T18:02:30.060Z,2.78
2022-08-12T18:05:22.976Z,2.92
2022-08-12T18:08:12.344Z,2.05
2022-08-12T18:12:03.000Z,1.73
2022-08-12T18:14:27.739Z,1.10
2022-08-12T18:17:17.838Z,1.20
2022-08-12T18:20:07.614Z,1.50
2022-08-12T18:22:56.254Z,1.40
2022-08-12T18:26:14.311Z,1.40
2022-08-12T18:29:03.056Z,1.30
2022-08-12T18:31:59.917Z,1.50
2022-08-12T18:34:48.226Z,1.50
2022-08-12T18:37:42.617Z,1.05
2022-08-12T18:40:48.001Z,1.40
2022-08-12T18:43:57.597Z,1.30
2022-08-12T18:46:46.936Z,1.60
2022-08-12T18:49:39.448Z,1.20
2022-08-12T18:52:33.056Z,1.08
2022-08-12T18:55:19.116Z,1.08
2022-08-12T18:58:09.981Z,1.05
2022-08-12T19:00:55.858Z,1.30
2022-08-12T19:03:42.352Z,1.17
2022-08-12T19:06:36.277Z,1.40
2022-08-12T19:09:39.108Z,1.20
2022-08-12T19:13:03.423Z,1.17
2022-08-12T19:15:54.726Z,1.50
2022-08-12T19:18:44.929Z,1.13
2022-08-12T19:21:31.924Z,1.10
2022-08-12T19:24:42.236Z,1.30
2022-08-12T19:27:32.443Z,1.20
2022-08-12T19:30:45.351Z,1.60
2022-08-12T19:33:33.459Z,1.33
2022-08-12T19:36:25.377Z,1.45
2022-08-12T19:39:15.159Z,1.70
2022-08-12T19:42:08.908Z,1.40
2022-08-12T19:45:04.518Z,1.67
2022-08-12T19:47:50.101Z,1.88
2022-08-12T19:50:37.149Z,1.95
2022-08-12T19:53:24.189Z,1.80
2022-08-12T19:56:11.581Z,2.30
2022-08-12T19:59:18.649Z,2.53
2022-08-12T20:02:10.646Z,2.38
2022-08-12T20:05:25.523Z,1.60
2022-08-12T20:08:03.126Z,1.83
2022-08-12T20:10:53.148Z,1.80
2022-08-12T20:13:42.183Z,1.92
2022-08-12T20:16:51.155Z,1.85
2022-08-12T20:20:01.140Z,1.75
2022-08-12T20:22:42.049Z,1.92
2022-08-12T20:25:52.558Z,1.98
2022-08-12T20:28:36.724Z,2.22
2022-08-12T20:31:22.111Z,2.10
2022-08-12T20:34:07.641Z,1.95
2022-08-12T20:37:04.694Z,2.00
2022-08-12T20:39:55.913Z,1.98
2022-08-12T20:42:43.811Z,1.75
2022-08-12T20:45:44.870Z,2.08
2022-08-12T20:48:36.279Z,2.28
2022-08-12T20:51:22.236Z,3.90
2022-08-12T20:54:08.845Z,11.95
2022-08-12T20:56:54.715Z,13.65
2022-08-12T20:59:48.029Z,9.80
2022-08-12T21:02:35.243Z,9.93
2022-08-12T21:06:09.589Z,4.22
2022-08-12T21:08:45.501Z,4.95
2022-08-12T21:11:32.727Z,4.90
2022-08-12T21:14:19.190Z,3.28
2022-08-12T21:18:00.360Z,2.92
2022-08-12T21:20:33.333Z,3.40
2022-08-12T21:23:21.457Z,2.70
2022-08-12T21:26:11.318Z,2.70
2022-08-12T21:29:01.710Z,2.58
2022-08-12T21:32:39.410Z,2.75
2022-08-12T21:34:56.828Z,2.40
2022-08-12T21:37:43.319Z,2.38
2022-08-12T21:40:51.997Z,2.10
2022-08-12T21:43:44.975Z,2.17
2022-08-12T21:46:35.697Z,2.10
2022-08-12T21:49:54.200Z,2.10
2022-08-12T21:52:28.360Z,2.50
2022-08-12T21:55:20.612Z,2.42
2022-08-12T21:58:11.261Z,2.40
2022-08-12T22:00:57.498Z,2.47
2022-08-12T22:04:11.211Z,2.35
2022-08-12T22:06:59.187Z,1.98
2022-08-12T22:09:45.017Z,2.28
2022-08-12T22:12:34.706Z,2.25
2022-08-12T22:15:23.688Z,2.58
2022-08-12T22:18:09.434Z,2.08
2022-08-12T22:20:55.455Z,3.30
2022-08-12T22:24:04.100Z,2.40
2022-08-12T22:26:48.501Z,2.10
2022-08-12T22:29:54.769Z,1.90
2022-08-12T22:32:49.529Z,2.20
2022-08-12T22:35:55.592Z,2.38
2022-08-12T22:38:46.204Z,1.83
2022-08-12T22:41:56.969Z,2.10
2022-08-12T22:45:15.969Z,1.88
2022-08-12T22:48:01.959Z,2.15
2022-08-12T22:50:48.808Z,2.45
2022-08-12T22:53:36.751Z,2.53
2022-08-12T22:56:30.897Z,2.10
2022-08-12T22:59:17.207Z,2.20
2022-08-12T23:02:07.749Z,2.08
2022-08-12T23:04:58.381Z,1.90
2022-08-12T23:07:58.873Z,2.00
2022-08-12T23:10:46.976Z,2.10
2022-08-12T23:13:49.077Z,2.05
2022-08-12T23:16:42.194Z,2.20
2022-08-12T23:19:36.269Z,1.70
2022-08-12T23:22:35.772Z,2.05
2022-08-12T23:25:22.919Z,1.88
2022-08-12T23:28:37.128Z,2.10
2022-08-12T23:32:01.868Z,2.20
2022-08-12T23:34:34.417Z,2.35
2022-08-12T23:37:20.420Z,1.70
2022-08-12T23:40:26.211Z,2.00
2022-08-12T23:43:12.440Z,2.33
2022-08-12T23:46:00.300Z,2.17
2022-08-12T23:48:48.017Z,2.28
2022-08-12T23:51:37.823Z,2.50
2022-08-12T23:54:33.107Z,1.95
2022-08-12T23:57:26.578Z,2.22
